London Corbin Airport Magee Field
KLOZ : now visible

Airfield :











YOU CAN JOIN US ON...

 
LOGIN :

Register | Disclaimer

   EN    FR    IT 

 









Legend :    VFR   Marginal VFR   IFR   Intensive IFR   Very Intensive IFR
Visi :
Ceiling :
>= 8 km
>= 3000ft
5 to 8 km
1000 to 3000 ft
1500m to 5 km
500 to 1000 ft
800 to 1500m
200 to 500 ft
< 800m
< 200 ft
Symbols :   Thunderstorms  Fog  Heavy snow  Heavy precipitations  Wind > 20 kt






- Airport Elevation : 1212 ft


KLOZ - London Corbin Magee Field

CURRENT METAR :
  • 092353Z AUTO 29016G24KT 10SM -RA CLR 13/M04 A2977 RMK AO2 PK WND 28027/2332 SLP076 P0000 60000 T01281039 10161 20128 53009

EXPIRED METARs :
  • 092334Z AUTO 29017G27KT 10SM -RA FEW002 13/M04 A2976 RMK AO2 PK WND 28027/2332 P0000 T01281039
  • 092253Z AUTO 29014G24KT 10SM -RA CLR 14/M04 A2974 RMK AO2 PK WND 25033/2159 RAE2159B47 SLP068 P0000 T01391044
  • 092153Z AUTO 27016G21KT 10SM -RA CLR 16/M04 A2973 RMK AO2 PK WND 31028/2122 RAB2055 SLP062 P0000 T01561039

TAF KLOZ
Valid from the 10 at 00:00 until the 11 at 00:00 UTC


092333Z 1000/1024 29011G22KT P6SM SCT060
FM100600 30009KT P6SM SCT040
FM101600 31010G19KT P6SM FEW050



MET'MAP, your aeronautical weather chart ! - Copyright ORBIFLY December 2007 - Disclaimer

ORBIFLY MET'MAP TEAM :

Programming & Development : Alexandra Zaïnal
Concept & original design : Baudouin d'Aumeries
Assistance for programming : Marc-Olivier Méhu
Technical & hardware support : Manuel Goepfert

Contact : metmap@orbifly.com




SOURCES & CREDITS :

   NOAA       Earth
Advisory